sensor_id;sensor_type;location;lat;lon;timestamp;pressure;altitude;pressure_sealevel;temperature;humidity
70982;BME280;58640;51.320;9.456;2023-04-09T00:00:43;100266.44;;;6.68;89.23
70982;BME280;58640;51.320;9.456;2023-04-09T00:03:08;100273.00;;;6.64;89.68
70982;BME280;58640;51.320;9.456;2023-04-09T00:05:38;100273.00;;;6.64;89.84
70982;BME280;58640;51.320;9.456;2023-04-09T00:08:03;100272.25;;;6.62;89.71
70982;BME280;58640;51.320;9.456;2023-04-09T00:10:29;100267.91;;;6.61;89.45
70982;BME280;58640;51.320;9.456;2023-04-09T00:12:54;100274.56;;;6.67;89.29
70982;BME280;58640;51.320;9.456;2023-04-09T00:15:20;100270.78;;;6.69;89.36
70982;BME280;58640;51.320;9.456;2023-04-09T00:17:45;100271.50;;;6.71;89.22
70982;BME280;58640;51.320;9.456;2023-04-09T00:20:11;100276.31;;;6.77;88.59
70982;BME280;58640;51.320;9.456;2023-04-09T00:22:36;100265.16;;;6.72;88.86
70982;BME280;58640;51.320;9.456;2023-04-09T00:25:01;100262.16;;;6.66;89.55
70982;BME280;58640;51.320;9.456;2023-04-09T00:27:27;100271.50;;;6.71;89.05
70982;BME280;58640;51.320;9.456;2023-04-09T00:29:53;100267.44;;;6.56;89.75
70982;BME280;58640;51.320;9.456;2023-04-09T00:32:19;100271.56;;;6.60;89.45
70982;BME280;58640;51.320;9.456;2023-04-09T00:34:44;100262.63;;;6.50;89.96
70982;BME280;58640;51.320;9.456;2023-04-09T00:37:09;100271.03;;;6.46;90.34
70982;BME280;58640;51.320;9.456;2023-04-09T00:39:35;100275.00;;;6.51;90.20
70982;BME280;58640;51.320;9.456;2023-04-09T00:42:00;100261.91;;;6.48;89.99
70982;BME280;58640;51.320;9.456;2023-04-09T00:44:28;100264.50;;;6.39;90.58
70982;BME280;58640;51.320;9.456;2023-04-09T00:46:54;100271.19;;;6.44;90.81
70982;BME280;58640;51.320;9.456;2023-04-09T00:49:20;100266.66;;;6.45;90.61
70982;BME280;58640;51.320;9.456;2023-04-09T00:51:47;100265.19;;;6.52;89.93
70982;BME280;58640;51.320;9.456;2023-04-09T00:54:12;100263.22;;;6.54;89.97
70982;BME280;58640;51.320;9.456;2023-04-09T00:56:38;100266.53;;;6.46;90.40
70982;BME280;58640;51.320;9.456;2023-04-09T00:59:03;100262.44;;;6.42;90.32
70982;BME280;58640;51.320;9.456;2023-04-09T01:01:29;100261.91;;;6.48;90.26
70982;BME280;58640;51.320;9.456;2023-04-09T01:03:54;100259.03;;;6.40;90.68
70982;BME280;58640;51.320;9.456;2023-04-09T01:06:49;100255.91;;;6.35;90.70
70982;BME280;58640;51.320;9.456;2023-04-09T01:10:04;100258.97;;;6.31;91.22
70982;BME280;58640;51.320;9.456;2023-04-09T01:12:47;100259.88;;;6.20;91.62
70982;BME280;58640;51.320;9.456;2023-04-09T01:15:24;100254.88;;;6.27;90.99
70982;BME280;58640;51.320;9.456;2023-04-09T01:18:10;100252.66;;;6.00;92.94
70982;BME280;58640;51.320;9.456;2023-04-09T01:20:41;100252.53;;;6.02;92.40
70982;BME280;58640;51.320;9.456;2023-04-09T01:23:44;100239.91;;;6.04;92.62
70982;BME280;58640;51.320;9.456;2023-04-09T01:26:40;100233.06;;;5.90;93.43
70982;BME280;58640;51.320;9.456;2023-04-09T01:29:09;100242.00;;;5.89;93.49
70982;BME280;58640;51.320;9.456;2023-04-09T01:31:36;100242.88;;;5.89;92.85
70982;BME280;58640;51.320;9.456;2023-04-09T01:34:04;100240.59;;;5.85;93.33
70982;BME280;58640;51.320;9.456;2023-04-09T01:36:30;100250.50;;;5.94;93.12
70982;BME280;58640;51.320;9.456;2023-04-09T01:38:56;100246.34;;;6.01;91.98
70982;BME280;58640;51.320;9.456;2023-04-09T01:41:23;100242.88;;;5.89;92.96
70982;BME280;58640;51.320;9.456;2023-04-09T01:43:52;100245.88;;;5.96;92.66
70982;BME280;58640;51.320;9.456;2023-04-09T01:46:18;100248.16;;;6.01;92.13
70982;BME280;58640;51.320;9.456;2023-04-09T01:48:45;100244.91;;;5.97;92.38
70982;BME280;58640;51.320;9.456;2023-04-09T01:51:11;100256.25;;;6.10;92.20
70982;BME280;58640;51.320;9.456;2023-04-09T01:53:40;100249.13;;;6.11;91.80
70982;BME280;58640;51.320;9.456;2023-04-09T01:56:06;100247.72;;;6.16;91.29
70982;BME280;58640;51.320;9.456;2023-04-09T01:58:32;100249.13;;;6.11;91.62
70982;BME280;58640;51.320;9.456;2023-04-09T02:01:07;100246.19;;;6.14;91.54
70982;BME280;58640;51.320;9.456;2023-04-09T02:03:41;100249.38;;;6.08;91.94
70982;BME280;58640;51.320;9.456;2023-04-09T02:09:01;100255.66;;;6.07;92.11
70982;BME280;58640;51.320;9.456;2023-04-09T02:11:32;100264.78;;;6.04;92.32
70982;BME280;58640;51.320;9.456;2023-04-09T02:13:58;100258.97;;;5.99;92.57
70982;BME280;58640;51.320;9.456;2023-04-09T02:16:25;100262.63;;;5.98;92.66
70982;BME280;58640;51.320;9.456;2023-04-09T02:18:54;100274.91;;;5.89;92.80
70982;BME280;58640;51.320;9.456;2023-04-09T02:21:22;100269.41;;;6.02;92.25
70982;BME280;58640;51.320;9.456;2023-04-09T02:23:47;100259.84;;;6.00;92.38
70982;BME280;58640;51.320;9.456;2023-04-09T02:26:12;100261.56;;;5.89;92.84
70982;BME280;58640;51.320;9.456;2023-04-09T02:28:38;100264.22;;;5.89;93.12
70982;BME280;58640;51.320;9.456;2023-04-09T02:31:03;100266.09;;;6.10;91.58
70982;BME280;58640;51.320;9.456;2023-04-09T02:33:29;100255.00;;;5.93;92.79
70982;BME280;58640;51.320;9.456;2023-04-09T02:35:54;100255.00;;;5.93;92.94
70982;BME280;58640;51.320;9.456;2023-04-09T02:38:19;100258.50;;;5.94;92.68
70982;BME280;58640;51.320;9.456;2023-04-09T02:40:45;100241.66;;;5.82;93.36
70982;BME280;58640;51.320;9.456;2023-04-09T02:43:10;100244.94;;;5.86;93.22
70982;BME280;58640;51.320;9.456;2023-04-09T02:45:35;100240.47;;;5.86;93.36
70982;BME280;58640;51.320;9.456;2023-04-09T02:48:01;100253.47;;;5.69;94.46
70982;BME280;58640;51.320;9.456;2023-04-09T02:50:26;100242.16;;;5.76;94.01
70982;BME280;58640;51.320;9.456;2023-04-09T02:52:52;100237.53;;;5.78;93.64
70982;BME280;58640;51.320;9.456;2023-04-09T02:55:18;100242.41;;;5.84;93.03
70982;BME280;58640;51.320;9.456;2023-04-09T02:57:44;100236.88;;;5.97;92.24
70982;BME280;58640;51.320;9.456;2023-04-09T03:00:10;100233.88;;;5.90;93.04
70982;BME280;58640;51.320;9.456;2023-04-09T03:02:36;100223.31;;;5.89;92.40
70982;BME280;58640;51.320;9.456;2023-04-09T03:05:02;100225.66;;;5.71;93.55
70982;BME280;58640;51.320;9.456;2023-04-09T03:07:27;100234.06;;;5.67;93.83
70982;BME280;58640;51.320;9.456;2023-04-09T03:09:52;100228.47;;;5.70;94.12
70982;BME280;58640;51.320;9.456;2023-04-09T03:12:18;100228.72;;;5.67;94.01
70982;BME280;58640;51.320;9.456;2023-04-09T03:14:43;100222.44;;;5.68;94.15
70982;BME280;58640;51.320;9.456;2023-04-09T03:17:08;100233.69;;;5.60;93.85
70982;BME280;58640;51.320;9.456;2023-04-09T03:19:34;100227.41;;;5.61;94.31
70982;BME280;58640;51.320;9.456;2023-04-09T03:21:59;100224.34;;;5.66;93.95
70982;BME280;58640;51.320;9.456;2023-04-09T03:24:24;100229.06;;;5.73;93.53
70982;BME280;58640;51.320;9.456;2023-04-09T03:26:50;100238.88;;;5.73;93.29
70982;BME280;58640;51.320;9.456;2023-04-09T03:29:15;100243.00;;;5.77;93.46
70982;BME280;58640;51.320;9.456;2023-04-09T03:31:41;100237.19;;;5.72;93.52
70982;BME280;58640;51.320;9.456;2023-04-09T03:34:06;100233.31;;;5.76;93.37
70982;BME280;58640;51.320;9.456;2023-04-09T03:36:31;100240.00;;;5.70;93.58
70982;BME280;58640;51.320;9.456;2023-04-09T03:38:57;100232.84;;;5.71;93.98
70982;BME280;58640;51.320;9.456;2023-04-09T03:41:22;100231.72;;;5.73;93.62
70982;BME280;58640;51.320;9.456;2023-04-09T03:43:48;100231.13;;;5.70;93.75
70982;BME280;58640;51.320;9.456;2023-04-09T03:46:16;100233.09;;;5.68;93.48
70982;BME280;58640;51.320;9.456;2023-04-09T03:48:42;100232.97;;;5.69;93.56
70982;BME280;58640;51.320;9.456;2023-04-09T03:51:15;100223.97;;;5.70;93.62
70982;BME280;58640;51.320;9.456;2023-04-09T03:53:41;100228.06;;;5.74;93.82
70982;BME280;58640;51.320;9.456;2023-04-09T03:56:07;100224.84;;;5.71;92.92
70982;BME280;58640;51.320;9.456;2023-04-09T03:58:33;100230.16;;;5.71;93.67
70982;BME280;58640;51.320;9.456;2023-04-09T04:00:58;100239.00;;;5.71;93.40
70982;BME280;58640;51.320;9.456;2023-04-09T04:03:24;100228.94;;;5.75;93.22
70982;BME280;58640;51.320;9.456;2023-04-09T04:05:49;100237.53;;;5.78;92.90
70982;BME280;58640;51.320;9.456;2023-04-09T04:08:15;100236.47;;;5.70;93.39
70982;BME280;58640;51.320;9.456;2023-04-09T04:10:40;100234.06;;;5.67;93.12
70982;BME280;58640;51.320;9.456;2023-04-09T04:13:06;100237.28;;;5.81;92.73
70982;BME280;58640;51.320;9.456;2023-04-09T04:15:32;100236.22;;;5.73;92.92
70982;BME280;58640;51.320;9.456;2023-04-09T04:17:58;100237.06;;;5.84;92.32
70982;BME280;58640;51.320;9.456;2023-04-09T04:20:23;100243.75;;;5.79;92.41
70982;BME280;58640;51.320;9.456;2023-04-09T04:22:49;100251.78;;;5.68;92.93
70982;BME280;58640;51.320;9.456;2023-04-09T04:25:14;100232.34;;;5.77;92.25
70982;BME280;58640;51.320;9.456;2023-04-09T04:27:42;100239.09;;;5.81;92.23
70982;BME280;58640;51.320;9.456;2023-04-09T04:30:08;100239.72;;;5.73;92.70
70982;BME280;58640;51.320;9.456;2023-04-09T04:32:33;100234.31;;;5.64;93.13
70982;BME280;58640;51.320;9.456;2023-04-09T04:34:59;100237.97;;;5.63;92.92
70982;BME280;58640;51.320;9.456;2023-04-09T04:37:24;100248.25;;;5.67;92.39
70982;BME280;58640;51.320;9.456;2023-04-09T04:39:49;100245.22;;;5.61;93.01
70982;BME280;58640;51.320;9.456;2023-04-09T04:42:15;100248.53;;;5.53;94.00
70982;BME280;58640;51.320;9.456;2023-04-09T04:44:41;100246.94;;;5.51;94.03
70982;BME280;58640;51.320;9.456;2023-04-09T04:47:06;100254.91;;;5.62;93.59
70982;BME280;58640;51.320;9.456;2023-04-09T04:49:32;100246.91;;;5.62;93.27
70982;BME280;58640;51.320;9.456;2023-04-09T04:51:57;100249.09;;;5.57;93.35
70982;BME280;58640;51.320;9.456;2023-04-09T04:54:22;100254.44;;;5.57;93.87
70982;BME280;58640;51.320;9.456;2023-04-09T04:56:48;100254.78;;;5.63;93.35
70982;BME280;58640;51.320;9.456;2023-04-09T04:59:13;100252.94;;;5.75;92.65
70982;BME280;58640;51.320;9.456;2023-04-09T05:01:38;100255.28;;;5.68;92.43
70982;BME280;58640;51.320;9.456;2023-04-09T05:04:04;100252.53;;;5.48;93.69
70982;BME280;58640;51.320;9.456;2023-04-09T05:06:29;100256.53;;;5.31;95.20
70982;BME280;58640;51.320;9.456;2023-04-09T05:08:55;100261.41;;;5.48;94.71
70982;BME280;58640;51.320;9.456;2023-04-09T05:11:23;100266.72;;;5.59;93.46
70982;BME280;58640;51.320;9.456;2023-04-09T05:13:49;100259.09;;;5.55;94.18
70982;BME280;58640;51.320;9.456;2023-04-09T05:16:15;100257.81;;;5.70;92.86
70982;BME280;58640;51.320;9.456;2023-04-09T05:18:41;100262.44;;;5.79;92.01
70982;BME280;58640;51.320;9.456;2023-04-09T05:21:06;100262.47;;;5.68;92.83
70982;BME280;58640;51.320;9.456;2023-04-09T05:23:32;100262.94;;;5.62;93.60
70982;BME280;58640;51.320;9.456;2023-04-09T05:25:57;100268.38;;;5.71;93.28
70982;BME280;58640;51.320;9.456;2023-04-09T05:28:22;100269.69;;;5.77;93.26
70982;BME280;58640;51.320;9.456;2023-04-09T05:30:48;100268.25;;;5.84;92.45
70982;BME280;58640;51.320;9.456;2023-04-09T05:33:13;100268.59;;;5.90;92.33
70982;BME280;58640;51.320;9.456;2023-04-09T05:35:39;100266.88;;;6.01;91.44
70982;BME280;58640;51.320;9.456;2023-04-09T05:38:04;100267.75;;;5.90;91.88
70982;BME280;58640;51.320;9.456;2023-04-09T05:40:30;100266.47;;;6.05;91.55
70982;BME280;58640;51.320;9.456;2023-04-09T05:42:55;100268.63;;;6.11;90.53
70982;BME280;58640;51.320;9.456;2023-04-09T05:45:20;100266.91;;;5.89;91.56
70982;BME280;58640;51.320;9.456;2023-04-09T05:47:46;100269.41;;;6.02;91.86
70982;BME280;58640;51.320;9.456;2023-04-09T05:50:11;100275.91;;;5.88;92.12
70982;BME280;58640;51.320;9.456;2023-04-09T05:52:37;100268.06;;;6.08;91.32
70982;BME280;58640;51.320;9.456;2023-04-09T05:55:02;100268.81;;;6.30;90.20
70982;BME280;58640;51.320;9.456;2023-04-09T05:57:28;100274.78;;;6.23;90.56
70982;BME280;58640;51.320;9.456;2023-04-09T05:59:54;100274.44;;;6.16;90.83
70982;BME280;58640;51.320;9.456;2023-04-09T06:02:20;100273.88;;;6.13;90.75
70982;BME280;58640;51.320;9.456;2023-04-09T06:04:45;100263.81;;;6.05;90.96
70982;BME280;58640;51.320;9.456;2023-04-09T06:07:10;100272.13;;;6.23;90.71
70982;BME280;58640;51.320;9.456;2023-04-09T06:09:36;100270.03;;;6.26;91.20
70982;BME280;58640;51.320;9.456;2023-04-09T06:12:02;100269.19;;;6.46;89.30
70982;BME280;58640;51.320;9.456;2023-04-09T06:14:28;100271.03;;;6.66;88.60
70982;BME280;58640;51.320;9.456;2023-04-09T06:16:53;100274.97;;;6.83;87.76
70982;BME280;58640;51.320;9.456;2023-04-09T06:19:19;100275.69;;;6.94;87.30
70982;BME280;58640;51.320;9.456;2023-04-09T06:21:44;100282.22;;;7.01;86.61
70982;BME280;58640;51.320;9.456;2023-04-09T06:24:10;100275.84;;;6.93;86.94
70982;BME280;58640;51.320;9.456;2023-04-09T06:26:35;100277.06;;;7.09;87.16
70982;BME280;58640;51.320;9.456;2023-04-09T06:29:00;100277.38;;;7.16;86.15
70982;BME280;58640;51.320;9.456;2023-04-09T06:31:26;100273.72;;;7.17;86.00
70982;BME280;58640;51.320;9.456;2023-04-09T06:33:51;100284.56;;;7.15;85.61
70982;BME280;58640;51.320;9.456;2023-04-09T06:36:16;100272.84;;;7.16;85.82
70982;BME280;58640;51.320;9.456;2023-04-09T06:38:42;100281.78;;;7.26;85.59
70982;BME280;58640;51.320;9.456;2023-04-09T06:41:07;100276.28;;;7.28;85.23
70982;BME280;58640;51.320;9.456;2023-04-09T06:43:33;100279.72;;;7.39;84.33
70982;BME280;58640;51.320;9.456;2023-04-09T06:45:58;100282.38;;;7.00;86.55
70982;BME280;58640;51.320;9.456;2023-04-09T06:48:23;100278.94;;;7.18;85.56
70982;BME280;58640;51.320;9.456;2023-04-09T06:50:49;100284.41;;;7.47;84.11
70982;BME280;58640;51.320;9.456;2023-04-09T06:53:14;100281.09;;;7.64;83.56
70982;BME280;58640;51.320;9.456;2023-04-09T06:55:40;100282.69;;;7.86;82.04
70982;BME280;58640;51.320;9.456;2023-04-09T06:58:06;100282.72;;;8.14;82.13
70982;BME280;58640;51.320;9.456;2023-04-09T07:00:31;100280.38;;;8.40;79.66
70982;BME280;58640;51.320;9.456;2023-04-09T07:02:56;100279.50;;;8.39;78.69
70982;BME280;58640;51.320;9.456;2023-04-09T07:05:22;100283.28;;;8.75;78.50
70982;BME280;58640;51.320;9.456;2023-04-09T07:07:48;100280.63;;;8.65;77.51
70982;BME280;58640;51.320;9.456;2023-04-09T07:10:13;100284.53;;;8.14;80.39
70982;BME280;58640;51.320;9.456;2023-04-09T07:12:38;100293.75;;;8.59;78.80
70982;BME280;58640;51.320;9.456;2023-04-09T07:15:05;100290.47;;;8.74;77.77
70982;BME280;58640;51.320;9.456;2023-04-09T07:17:31;100289.63;;;9.66;74.66
70982;BME280;58640;51.320;9.456;2023-04-09T07:19:57;100290.75;;;9.91;72.17
70982;BME280;58640;51.320;9.456;2023-04-09T07:22:23;100292.34;;;10.64;69.29
70982;BME280;58640;51.320;9.456;2023-04-09T07:24:49;100283.88;;;11.53;66.84
70982;BME280;58640;51.320;9.456;2023-04-09T07:27:25;100283.59;;;12.06;65.00
70982;BME280;58640;51.320;9.456;2023-04-09T07:29:54;100289.06;;;13.02;60.53
70982;BME280;58640;51.320;9.456;2023-04-09T07:32:19;100282.47;;;12.88;58.34
70982;BME280;58640;51.320;9.456;2023-04-09T07:34:45;100284.00;;;12.43;60.46
70982;BME280;58640;51.320;9.456;2023-04-09T07:37:10;100276.41;;;12.46;60.95
70982;BME280;58640;51.320;9.456;2023-04-09T07:39:36;100277.41;;;13.26;58.16
70982;BME280;58640;51.320;9.456;2023-04-09T07:42:03;100284.72;;;16.02;50.53
70982;BME280;58640;51.320;9.456;2023-04-09T07:44:28;100287.38;;;17.43;45.96
70982;BME280;58640;51.320;9.456;2023-04-09T07:46:54;100284.34;;;17.04;44.54
70982;BME280;58640;51.320;9.456;2023-04-09T07:49:19;100289.16;;;17.30;44.48
70982;BME280;58640;51.320;9.456;2023-04-09T07:51:46;100289.91;;;16.33;47.13
70982;BME280;58640;51.320;9.456;2023-04-09T07:54:11;100285.44;;;15.61;49.20
70982;BME280;58640;51.320;9.456;2023-04-09T07:56:37;100286.75;;;15.13;50.91
70982;BME280;58640;51.320;9.456;2023-04-09T07:59:02;100283.00;;;15.66;48.32
70982;BME280;58640;51.320;9.456;2023-04-09T08:01:27;100279.53;;;14.46;50.41
70982;BME280;58640;51.320;9.456;2023-04-09T08:03:53;100274.72;;;15.16;49.28
70982;BME280;58640;51.320;9.456;2023-04-09T08:06:18;100286.84;;;15.05;50.42
70982;BME280;58640;51.320;9.456;2023-04-09T08:08:44;100281.59;;;15.41;48.31
70982;BME280;58640;51.320;9.456;2023-04-09T08:11:09;100284.66;;;15.23;48.37
70982;BME280;58640;51.320;9.456;2023-04-09T08:13:35;100281.75;;;14.42;49.30
70982;BME280;58640;51.320;9.456;2023-04-09T08:16:00;100287.47;;;14.93;47.98
70982;BME280;58640;51.320;9.456;2023-04-09T08:18:29;100280.63;;;14.82;49.75
70982;BME280;58640;51.320;9.456;2023-04-09T08:20:55;100277.69;;;14.69;50.66
70982;BME280;58640;51.320;9.456;2023-04-09T08:23:21;100280.22;;;14.17;50.04
70982;BME280;58640;51.320;9.456;2023-04-09T08:25:46;100294.13;;;14.68;49.10
70982;BME280;58640;51.320;9.456;2023-04-09T08:28:11;100283.94;;;14.69;49.91
70982;BME280;58640;51.320;9.456;2023-04-09T08:30:37;100294.38;;;14.81;48.95
70982;BME280;58640;51.320;9.456;2023-04-09T08:33:02;100281.06;;;14.71;49.25
70982;BME280;58640;51.320;9.456;2023-04-09T08:35:30;100282.56;;;15.11;48.30
70982;BME280;58640;51.320;9.456;2023-04-09T08:37:56;100293.66;;;15.01;48.42
70982;BME280;58640;51.320;9.456;2023-04-09T08:40:22;100299.00;;;13.80;50.21
70982;BME280;58640;51.320;9.456;2023-04-09T08:42:52;100292.72;;;14.72;48.25
70982;BME280;58640;51.320;9.456;2023-04-09T08:45:18;100290.00;;;14.72;48.79
70982;BME280;58640;51.320;9.456;2023-04-09T08:47:44;100294.94;;;14.68;48.47
70982;BME280;58640;51.320;9.456;2023-04-09T08:50:11;100287.78;;;14.75;48.24
70982;BME280;58640;51.320;9.456;2023-04-09T08:52:37;100293.28;;;14.06;49.61
70982;BME280;58640;51.320;9.456;2023-04-09T08:55:03;100295.41;;;14.94;47.65
70982;BME280;58640;51.320;9.456;2023-04-09T08:57:28;100289.88;;;15.25;47.00
70982;BME280;58640;51.320;9.456;2023-04-09T08:59:54;100297.13;;;15.61;46.85
70982;BME280;58640;51.320;9.456;2023-04-09T09:02:19;100287.34;;;16.10;44.89
70982;BME280;58640;51.320;9.456;2023-04-09T09:04:46;100294.66;;;15.37;46.03
70982;BME280;58640;51.320;9.456;2023-04-09T09:07:12;100291.53;;;15.11;49.20
70982;BME280;58640;51.320;9.456;2023-04-09T09:09:56;100289.75;;;15.70;46.22
70982;BME280;58640;51.320;9.456;2023-04-09T09:12:35;100282.84;;;16.39;44.16
70982;BME280;58640;51.320;9.456;2023-04-09T09:15:03;100291.53;;;14.74;46.51
70982;BME280;58640;51.320;9.456;2023-04-09T09:17:29;100281.38;;;14.91;45.17
70982;BME280;58640;51.320;9.456;2023-04-09T09:19:54;100288.81;;;14.21;47.38
70982;BME280;58640;51.320;9.456;2023-04-09T09:22:20;100287.94;;;13.98;47.50
70982;BME280;58640;51.320;9.456;2023-04-09T09:24:50;100288.56;;;12.90;49.95
70982;BME280;58640;51.320;9.456;2023-04-09T09:27:45;100291.34;;;13.92;47.04
70982;BME280;58640;51.320;9.456;2023-04-09T09:30:20;100288.13;;;13.58;47.10
70982;BME280;58640;51.320;9.456;2023-04-09T09:32:46;100287.25;;;14.04;45.90
70982;BME280;58640;51.320;9.456;2023-04-09T09:35:13;100289.06;;;13.73;47.00
70982;BME280;58640;51.320;9.456;2023-04-09T09:37:38;100287.91;;;13.67;46.49
70982;BME280;58640;51.320;9.456;2023-04-09T09:40:04;100285.34;;;12.39;48.94
70982;BME280;58640;51.320;9.456;2023-04-09T09:42:29;100283.56;;;11.98;50.72
70982;BME280;58640;51.320;9.456;2023-04-09T09:44:57;100282.63;;;12.39;50.13
70982;BME280;58640;51.320;9.456;2023-04-09T09:47:22;100283.31;;;12.33;50.75
70982;BME280;58640;51.320;9.456;2023-04-09T09:49:50;100282.38;;;12.00;52.60
70982;BME280;58640;51.320;9.456;2023-04-09T09:52:24;100287.88;;;11.82;53.38
70982;BME280;58640;51.320;9.456;2023-04-09T09:54:51;100278.22;;;12.14;52.49
70982;BME280;58640;51.320;9.456;2023-04-09T09:57:20;100287.22;;;11.81;53.51
70982;BME280;58640;51.320;9.456;2023-04-09T10:00:00;100285.91;;;11.93;53.56
70982;BME280;58640;51.320;9.456;2023-04-09T10:02:27;100283.84;;;11.78;54.13
70982;BME280;58640;51.320;9.456;2023-04-09T10:04:59;100284.34;;;11.48;55.32
70982;BME280;58640;51.320;9.456;2023-04-09T10:07:25;100287.88;;;11.49;55.56
70982;BME280;58640;51.320;9.456;2023-04-09T10:09:53;100278.44;;;11.45;54.71
70982;BME280;58640;51.320;9.456;2023-04-09T10:12:20;100281.47;;;11.42;55.27
70982;BME280;58640;51.320;9.456;2023-04-09T10:14:48;100270.31;;;11.37;55.88
70982;BME280;58640;51.320;9.456;2023-04-09T10:17:15;100278.75;;;11.42;55.18
70982;BME280;58640;51.320;9.456;2023-04-09T10:19:45;100274.53;;;11.39;54.64
70982;BME280;58640;51.320;9.456;2023-04-09T10:22:16;100279.41;;;11.36;54.83
70982;BME280;58640;51.320;9.456;2023-04-09T10:24:41;100271.34;;;11.69;54.02
70982;BME280;58640;51.320;9.456;2023-04-09T10:27:12;100273.34;;;11.67;54.23
70982;BME280;58640;51.320;9.456;2023-04-09T10:29:42;100275.16;;;12.01;53.35
70982;BME280;58640;51.320;9.456;2023-04-09T10:32:09;100270.03;;;11.48;54.23
70982;BME280;58640;51.320;9.456;2023-04-09T10:34:37;100267.38;;;11.98;53.08
70982;BME280;58640;51.320;9.456;2023-04-09T10:37:06;100264.78;;;11.72;53.73
70982;BME280;58640;51.320;9.456;2023-04-09T10:39:32;100267.03;;;11.93;53.74
70982;BME280;58640;51.320;9.456;2023-04-09T10:42:07;100267.03;;;11.93;54.14
70982;BME280;58640;51.320;9.456;2023-04-09T10:44:33;100273.44;;;11.92;54.33
70982;BME280;58640;51.320;9.456;2023-04-09T10:47:02;100268.44;;;12.21;53.38
70982;BME280;58640;51.320;9.456;2023-04-09T10:49:34;100269.59;;;12.02;53.11
70982;BME280;58640;51.320;9.456;2023-04-09T10:52:09;100275.47;;;11.98;52.38
70982;BME280;58640;51.320;9.456;2023-04-09T10:54:41;100268.88;;;11.92;52.80
70982;BME280;58640;51.320;9.456;2023-04-09T10:59:37;100276.06;;;12.41;51.42
70982;BME280;58640;51.320;9.456;2023-04-09T11:04:56;100263.91;;;12.29;51.80
70982;BME280;58640;51.320;9.456;2023-04-09T11:07:26;100259.38;;;12.62;51.77
70982;BME280;58640;51.320;9.456;2023-04-09T11:09:54;100262.72;;;12.24;52.07
70982;BME280;58640;51.320;9.456;2023-04-09T11:12:19;100257.50;;;12.30;52.64
70982;BME280;58640;51.320;9.456;2023-04-09T11:14:45;100257.50;;;12.14;52.61
70982;BME280;58640;51.320;9.456;2023-04-09T11:17:11;100262.06;;;12.30;52.34
70982;BME280;58640;51.320;9.456;2023-04-09T11:19:37;100256.34;;;12.33;52.19
70982;BME280;58640;51.320;9.456;2023-04-09T11:22:03;100258.34;;;12.47;52.31
70982;BME280;58640;51.320;9.456;2023-04-09T11:24:43;100260.22;;;12.70;51.52
70982;BME280;58640;51.320;9.456;2023-04-09T11:27:09;100252.13;;;12.54;51.54
70982;BME280;58640;51.320;9.456;2023-04-09T11:29:35;100253.63;;;12.41;52.21
70982;BME280;58640;51.320;9.456;2023-04-09T11:32:01;100250.09;;;12.32;52.30
70982;BME280;58640;51.320;9.456;2023-04-09T11:34:30;100254.00;;;12.54;51.37
70982;BME280;58640;51.320;9.456;2023-04-09T11:36:55;100249.88;;;12.10;52.93
70982;BME280;58640;51.320;9.456;2023-04-09T11:39:23;100244.50;;;12.98;51.18
70982;BME280;58640;51.320;9.456;2023-04-09T11:41:48;100256.75;;;13.79;49.42
70982;BME280;58640;51.320;9.456;2023-04-09T11:44:13;100245.13;;;14.01;48.47
70982;BME280;58640;51.320;9.456;2023-04-09T11:46:40;100246.78;;;14.10;48.69
70982;BME280;58640;51.320;9.456;2023-04-09T11:49:05;100237.81;;;14.10;47.16
70982;BME280;58640;51.320;9.456;2023-04-09T11:51:31;100248.34;;;14.05;45.25
70982;BME280;58640;51.320;9.456;2023-04-09T11:54:00;100247.31;;;14.36;43.94
70982;BME280;58640;51.320;9.456;2023-04-09T11:56:30;100238.72;;;14.02;45.55
70982;BME280;58640;51.320;9.456;2023-04-09T11:58:57;100235.03;;;14.71;43.92
70982;BME280;58640;51.320;9.456;2023-04-09T12:01:22;100239.06;;;14.30;44.92
70982;BME280;58640;51.320;9.456;2023-04-09T12:03:54;100229.09;;;14.53;44.40
70982;BME280;58640;51.320;9.456;2023-04-09T12:06:20;100229.75;;;14.32;45.31
70982;BME280;58640;51.320;9.456;2023-04-09T12:08:51;100235.69;;;14.50;45.20
70982;BME280;58640;51.320;9.456;2023-04-09T12:11:16;100231.72;;;14.61;43.35
70982;BME280;58640;51.320;9.456;2023-04-09T12:13:42;100224.28;;;14.40;44.05
70982;BME280;58640;51.320;9.456;2023-04-09T12:16:09;100228.06;;;14.54;44.22
70982;BME280;58640;51.320;9.456;2023-04-09T12:18:35;100220.38;;;14.43;43.72
70982;BME280;58640;51.320;9.456;2023-04-09T12:21:02;100221.34;;;14.27;43.72
70982;BME280;58640;51.320;9.456;2023-04-09T12:23:27;100219.38;;;14.58;43.05
70982;BME280;58640;51.320;9.456;2023-04-09T12:25:55;100223.72;;;14.68;43.53
70982;BME280;58640;51.320;9.456;2023-04-09T12:28:23;100224.34;;;14.02;44.16
70982;BME280;58640;51.320;9.456;2023-04-09T12:30:49;100214.88;;;14.51;42.28
70982;BME280;58640;51.320;9.456;2023-04-09T12:33:15;100214.88;;;14.28;42.99
70982;BME280;58640;51.320;9.456;2023-04-09T12:35:40;100214.69;;;13.77;43.32
70982;BME280;58640;51.320;9.456;2023-04-09T12:38:05;100212.91;;;13.61;44.79
70982;BME280;58640;51.320;9.456;2023-04-09T12:40:31;100208.41;;;13.84;44.73
70982;BME280;58640;51.320;9.456;2023-04-09T12:42:56;100216.81;;;13.59;46.17
70982;BME280;58640;51.320;9.456;2023-04-09T12:45:21;100211.00;;;13.70;45.92
70982;BME280;58640;51.320;9.456;2023-04-09T12:47:47;100207.81;;;13.66;45.77
70982;BME280;58640;51.320;9.456;2023-04-09T12:50:13;100191.09;;;13.32;45.30
70982;BME280;58640;51.320;9.456;2023-04-09T12:52:40;100199.03;;;13.34;45.06
70982;BME280;58640;51.320;9.456;2023-04-09T12:55:06;100194.94;;;13.38;43.76
70982;BME280;58640;51.320;9.456;2023-04-09T12:57:32;100185.66;;;13.40;44.16
70982;BME280;58640;51.320;9.456;2023-04-09T12:59:58;100181.41;;;13.46;44.35
70982;BME280;58640;51.320;9.456;2023-04-09T13:02:24;100182.09;;;13.40;43.85